Pagrindinis puslapis
METAR-TAF:

METAR-TAF

Oro uostai :

Naksas, Graikija

platuma: 37-04-47N, ilguma: 025-22-01E, Aukštis: 3 m

Dabartinis oras

Ataskaita buvo paskelbta 13 valandos ir 34 minutes, ne 11:50 UTC
Vėjas 16 kt iš Šiaurės/Šiaurės Rytų
Temperatūra 7°C
Drėgmė 70%
Slėgis 1016 hPa
Matomumas 10 km arba daugiau
Mažai debesys ne aukštis 1800 ft
Su prošvaistėmis ne aukštis 2500 ft

METAR: LGNX 181150Z 03016KT 9999 FEW018 BKN025 07/02 Q1016

Laikas: 03:24 (01:24 UTC)


TAF: trūkstamas

Orai ataskaitas ir orų prognozės (METAR, TAF).

turimą stotys yra geltonos ir raudonos taškus žemėlapyje.

Perkelti pele per norėdami pamatyti stoties vardą.

Tada spustelėkite, norėdami matyti oro stebėjimo ir prognozės.

Norėdami pakeisti žemėlapį: spustelėkite ant žalios mygtukų su juodo kryžiaus žemyn,; žalią mygtuką su brūkšneliu, jei norite nutolinti; arba žalių rodyklių gretimoms žemėlapius.


METAR-TAF: